Terminal Aerodrome Forecast
Issued by NWS

Home | Current Version | Previous Version | Text Only | Print | Product List | Glossary On
Versions: 1 2 3 4 5 6 7 8 9 10 11 12
000
FTUS45 KABQ 060532
TAFAEG
TAF
KAEG 060532Z 0606/0706 VRB04KT P6SM BKN150
     FM061400 18006KT P6SM OVC120
     FM061800 19012G20KT P6SM BKN110
     FM070000 22010G16KT P6SM SCT060=

USA.gov is the U.S. government's official web portal to all federal, state and local government web resources and services.